Time;durP1;ratioP1;P1;durP2;ratioP2;P2;SDS_P1;SDS_P2;PMS_P1;PMS_P2;Temp;Humidity;BMP_temperature;BMP_pressure;BME280_temperature;BME280_humidity;BME280_pressure;Samples;Min_cycle;Max_cycle;Signal;HPM_P1;HPM_P2
2022/10/08 00:00:29;;;;;;;24.40;13.10;;;9.10;99.90;;;;;;4363711;28;657112;-67
2022/10/08 00:03:17;;;;;;;20.10;11.80;;;9.10;99.90;;;;;;4351526;28;657666;-67
2022/10/08 00:06:06;;;;;;;19.33;12.20;;;9.10;99.90;;;;;;4376296;28;658797;-67
2022/10/08 00:08:54;;;;;;;25.17;12.77;;;9.00;99.90;;;;;;4347863;28;657729;-67
2022/10/08 00:11:42;;;;;;;27.33;12.27;;;9.00;99.90;;;;;;4353482;28;657481;-67
2022/10/08 00:14:30;;;;;;;17.80;11.60;;;9.00;99.90;;;;;;4372348;28;658105;-67
2022/10/08 00:17:17;;;;;;;20.20;11.07;;;9.00;99.90;;;;;;4350267;28;661733;-67
2022/10/08 00:20:05;;;;;;;17.47;11.53;;;9.00;99.90;;;;;;4365327;28;658320;-67
2022/10/08 00:22:52;;;;;;;21.63;11.37;;;8.90;99.90;;;;;;4348042;28;658672;-67
2022/10/08 00:25:41;;;;;;;20.57;10.93;;;8.90;99.90;;;;;;4369214;28;657491;-67
2022/10/08 00:28:28;;;;;;;22.80;12.07;;;8.80;99.90;;;;;;4349818;28;658129;-67
2022/10/08 00:31:18;;;;;;;19.13;11.40;;;8.80;99.90;;;;;;4352104;28;658835;-67
2022/10/08 00:34:07;;;;;;;20.07;10.83;;;8.80;99.90;;;;;;4351549;28;657625;-67
2022/10/08 00:36:54;;;;;;;16.33;9.90;;;8.80;99.90;;;;;;4366993;28;658271;-67
2022/10/08 00:39:41;;;;;;;15.80;9.77;;;8.70;99.90;;;;;;4351661;28;656336;-67
2022/10/08 00:42:29;;;;;;;21.87;10.03;;;8.70;99.90;;;;;;4369719;28;657065;-67
2022/10/08 00:45:16;;;;;;;18.53;9.73;;;8.70;99.90;;;;;;4347691;28;657811;-67
2022/10/08 00:48:04;;;;;;;18.53;10.03;;;8.70;99.90;;;;;;4369840;28;657211;-67
2022/10/08 00:50:52;;;;;;;18.70;9.80;;;8.60;99.90;;;;;;4348901;28;658760;-67
2022/10/08 00:53:39;;;;;;;18.50;10.07;;;8.60;99.90;;;;;;4369042;28;657132;-67
2022/10/08 00:56:30;;;;;;;16.10;9.63;;;8.60;99.90;;;;;;4352201;28;657678;-67
2022/10/08 00:59:17;;;;;;;22.67;9.47;;;8.60;99.90;;;;;;4350457;28;658419;-67
2022/10/08 01:02:07;;;;;;;17.98;9.77;;;8.50;99.90;;;;;;4370110;28;656785;-67
2022/10/08 01:04:56;;;;;;;21.10;9.37;;;8.50;99.90;;;;;;4345540;28;657112;-66
2022/10/08 01:07:46;;;;;;;19.33;11.40;;;8.50;99.90;;;;;;4344062;28;656929;-67
2022/10/08 01:10:38;;;;;;;20.13;10.80;;;8.50;99.90;;;;;;4344100;28;658026;-67
2022/10/08 01:13:32;;;;;;;15.40;9.83;;;8.50;99.90;;;;;;4329331;28;658200;-67
2022/10/08 01:16:24;;;;;;;14.40;9.67;;;8.60;99.90;;;;;;4349640;28;657344;-67
2022/10/08 01:19:22;;;;;;;17.70;9.33;;;8.50;99.90;;;;;;4350532;28;656692;-67
2022/10/08 01:22:20;;;;;;;17.40;9.97;;;8.50;99.90;;;;;;4347928;28;657471;-67
2022/10/08 01:25:32;;;;;;;21.87;9.93;;;8.60;99.90;;;;;;4322091;28;657214;-67
2022/10/08 01:28:23;;;;;;;20.03;9.20;;;8.50;99.90;;;;;;4369625;28;656490;-67
2022/10/08 01:31:12;;;;;;;17.97;9.53;;;8.50;99.90;;;;;;4353223;28;656368;-67
2022/10/08 01:34:01;;;;;;;18.33;9.40;;;8.50;99.90;;;;;;4371840;28;656353;-67
2022/10/08 01:36:49;;;;;;;23.53;11.07;;;8.40;99.90;;;;;;4375180;28;656417;-67
2022/10/08 01:39:37;;;;;;;20.93;10.43;;;8.40;99.90;;;;;;4357277;28;657660;-67
2022/10/08 01:42:24;;;;;;;18.90;9.03;;;8.40;99.90;;;;;;4369013;28;658119;-66
2022/10/08 01:45:15;;;;;;;16.70;10.40;;;8.40;99.90;;;;;;4351562;28;656347;-67
2022/10/08 01:48:05;;;;;;;19.40;11.10;;;8.40;99.90;;;;;;4350891;28;658440;-67
2022/10/08 01:50:54;;;;;;;23.70;11.20;;;8.30;99.90;;;;;;4344515;28;658417;-67
2022/10/08 01:53:43;;;;;;;21.33;11.50;;;8.30;99.90;;;;;;4346023;28;657965;-67
2022/10/08 01:56:31;;;;;;;20.57;11.57;;;8.30;99.90;;;;;;4359834;28;657523;-67
2022/10/08 01:59:21;;;;;;;20.53;12.50;;;8.30;99.90;;;;;;4365757;28;658067;-67
2022/10/08 02:02:13;;;;;;;23.63;12.93;;;8.30;99.90;;;;;;4350314;28;658649;-67
2022/10/08 02:05:00;;;;;;;20.10;12.80;;;8.30;99.90;;;;;;4332932;28;657383;-67
2022/10/08 02:07:48;;;;;;;21.97;11.00;;;8.30;99.90;;;;;;4371922;28;657684;-67
2022/10/08 02:10:36;;;;;;;23.00;11.37;;;8.30;99.90;;;;;;4352686;28;657508;-67
2022/10/08 02:13:23;;;;;;;17.83;11.17;;;8.30;99.90;;;;;;4376649;28;658538;-67
2022/10/08 02:16:11;;;;;;;19.37;11.27;;;8.30;99.90;;;;;;4358800;28;657556;-67
2022/10/08 02:19:04;;;;;;;22.33;10.53;;;8.30;99.90;;;;;;4365764;28;657971;-67
2022/10/08 02:21:51;;;;;;;16.57;10.27;;;8.20;99.90;;;;;;4347147;28;657867;-67
2022/10/08 02:24:40;;;;;;;26.30;10.40;;;8.20;99.90;;;;;;4372251;28;658451;-67
2022/10/08 02:27:29;;;;;;;19.40;9.73;;;8.20;99.90;;;;;;4350352;28;659772;-67
2022/10/08 02:30:16;;;;;;;17.98;9.98;;;8.10;99.90;;;;;;4349254;28;656279;-67
2022/10/08 02:33:05;;;;;;;21.13;9.80;;;8.10;99.90;;;;;;4371610;28;658080;-67
2022/10/08 02:35:55;;;;;;;24.40;11.10;;;8.00;99.90;;;;;;4354582;28;656178;-66
2022/10/08 02:38:45;;;;;;;22.57;10.47;;;8.00;99.90;;;;;;4343668;28;658911;-67
2022/10/08 02:41:34;;;;;;;21.37;11.13;;;8.00;99.90;;;;;;4348407;28;658633;-67
2022/10/08 02:44:26;;;;;;;19.57;10.20;;;8.00;99.90;;;;;;4352043;28;657952;-67
2022/10/08 02:47:16;;;;;;;21.23;10.32;;;8.00;99.90;;;;;;4344841;28;659204;-67
2022/10/08 02:50:05;;;;;;;16.83;9.77;;;8.00;99.90;;;;;;4347983;28;658953;-67
2022/10/08 02:52:53;;;;;;;18.20;9.30;;;8.00;99.90;;;;;;4351923;28;658521;-67
2022/10/08 02:55:44;;;;;;;16.87;9.33;;;8.00;99.90;;;;;;4349414;28;656588;-66
2022/10/08 02:58:31;;;;;;;17.03;9.60;;;7.90;99.90;;;;;;4346389;28;658038;-67
2022/10/08 03:01:25;;;;;;;17.27;8.80;;;7.90;99.90;;;;;;4369974;28;657462;-67
2022/10/08 03:04:16;;;;;;;17.77;9.10;;;7.90;99.90;;;;;;4326224;28;658128;-67
2022/10/08 03:07:03;;;;;;;16.20;9.00;;;7.80;99.90;;;;;;4345129;28;657386;-67
2022/10/08 03:09:52;;;;;;;16.80;8.50;;;7.80;99.90;;;;;;4353346;28;656452;-67
2022/10/08 03:12:39;;;;;;;16.23;8.90;;;7.80;99.90;;;;;;4371845;28;656569;-67
2022/10/08 03:15:26;;;;;;;20.33;9.43;;;7.70;99.90;;;;;;4351144;28;656754;-67
2022/10/08 03:18:13;;;;;;;12.00;8.27;;;7.80;99.90;;;;;;4371027;28;658340;-67
2022/10/08 03:21:01;;;;;;;23.90;8.67;;;7.80;99.90;;;;;;4354669;28;656330;-67
2022/10/08 03:23:48;;;;;;;13.67;8.93;;;7.80;99.90;;;;;;4374312;28;658033;-67
2022/10/08 03:26:37;;;;;;;16.43;8.97;;;7.80;99.90;;;;;;4359021;28;657000;-67
2022/10/08 03:29:24;;;;;;;20.27;8.90;;;7.70;99.90;;;;;;4371231;28;657007;-67
2022/10/08 03:32:11;;;;;;;15.20;9.02;;;7.70;99.90;;;;;;4351247;28;656687;-67
2022/10/08 03:34:58;;;;;;;19.77;8.83;;;7.70;99.90;;;;;;4370827;28;657417;-67
2022/10/08 03:37:45;;;;;;;22.63;9.00;;;7.70;99.90;;;;;;4353203;28;656747;-67
2022/10/08 03:40:32;;;;;;;15.60;9.27;;;7.70;99.90;;;;;;4377075;28;657089;-67
2022/10/08 03:43:22;;;;;;;16.50;9.27;;;7.80;99.90;;;;;;4373032;28;657196;-67
2022/10/08 03:46:10;;;;;;;16.17;9.70;;;7.80;99.90;;;;;;4373130;28;656821;-67
2022/10/08 03:48:58;;;;;;;14.17;9.60;;;7.70;99.90;;;;;;4349462;28;657769;-67
2022/10/08 03:51:45;;;;;;;20.73;9.20;;;7.70;99.90;;;;;;4365899;28;656763;-67
2022/10/08 03:54:34;;;;;;;21.63;9.50;;;7.70;99.90;;;;;;4373916;28;657326;-67
2022/10/08 03:57:21;;;;;;;22.07;9.53;;;7.70;99.90;;;;;;4354446;28;656401;-67
2022/10/08 04:00:11;;;;;;;18.37;9.23;;;7.70;99.90;;;;;;4373565;28;657620;-67
2022/10/08 04:02:58;;;;;;;21.63;9.03;;;7.70;99.90;;;;;;4350323;28;657671;-67
2022/10/08 04:05:48;;;;;;;23.33;9.70;;;7.70;99.90;;;;;;4355538;28;657306;-67
2022/10/08 04:08:36;;;;;;;16.03;8.40;;;7.70;99.90;;;;;;4349534;28;657103;-67
2022/10/08 04:11:23;;;;;;;19.87;8.23;;;7.70;99.90;;;;;;4378794;28;657280;-67
2022/10/08 04:14:10;;;;;;;17.33;9.60;;;7.70;99.90;;;;;;4357524;28;656626;-67
2022/10/08 04:16:59;;;;;;;17.03;8.50;;;7.60;99.90;;;;;;4377866;28;657390;-67
2022/10/08 04:19:46;;;;;;;13.73;8.13;;;7.60;99.90;;;;;;4350649;28;656389;-67
2022/10/08 04:22:33;;;;;;;17.40;8.57;;;7.50;99.90;;;;;;4372176;28;657103;-67
2022/10/08 04:25:20;;;;;;;17.27;8.63;;;7.50;99.90;;;;;;4349859;28;656921;-67
2022/10/08 04:28:07;;;;;;;13.67;8.53;;;7.50;99.90;;;;;;4371980;28;657247;-67
2022/10/08 04:30:56;;;;;;;18.07;8.83;;;7.50;99.90;;;;;;4370537;28;656532;-67
2022/10/08 04:33:44;;;;;;;21.07;9.33;;;7.50;99.90;;;;;;4350944;28;657778;-67
2022/10/08 04:36:31;;;;;;;15.53;8.67;;;7.50;99.90;;;;;;4353657;28;656545;-67
2022/10/08 04:39:19;;;;;;;21.03;9.50;;;7.50;99.90;;;;;;4374394;28;658223;-66
2022/10/08 04:42:06;;;;;;;13.23;8.93;;;7.40;99.90;;;;;;4350025;28;656855;-67
2022/10/08 04:44:53;;;;;;;15.30;9.97;;;7.50;99.90;;;;;;4376864;28;656996;-66
2022/10/08 04:47:40;;;;;;;16.87;10.30;;;7.40;99.90;;;;;;4354636;28;656589;-66
2022/10/08 04:50:29;;;;;;;20.40;9.50;;;7.40;99.90;;;;;;4375599;28;657704;-66
2022/10/08 04:53:16;;;;;;;21.90;10.07;;;7.40;99.90;;;;;;4350318;28;656717;-65
2022/10/08 04:56:11;;;;;;;18.83;9.40;;;7.50;99.90;;;;;;4375076;28;658322;-65
2022/10/08 04:58:58;;;;;;;19.13;9.10;;;7.50;99.90;;;;;;4348711;28;657457;-66
2022/10/08 05:01:45;;;;;;;17.53;9.00;;;7.60;99.90;;;;;;4350680;28;656739;-66
2022/10/08 05:04:32;;;;;;;13.63;8.73;;;7.50;99.90;;;;;;4378163;28;657391;-65
2022/10/08 05:07:21;;;;;;;16.27;9.80;;;7.50;99.90;;;;;;4373824;28;656286;-65
2022/10/08 05:10:09;;;;;;;18.53;11.40;;;7.50;99.90;;;;;;4350825;28;657047;-66
2022/10/08 05:12:56;;;;;;;20.43;12.03;;;7.50;99.90;;;;;;4351805;28;657633;-66
2022/10/08 05:15:43;;;;;;;18.13;11.23;;;7.60;99.90;;;;;;4372662;28;658397;-64
2022/10/08 05:18:31;;;;;;;26.43;12.37;;;7.70;99.90;;;;;;4352913;28;658879;-66
2022/10/08 05:21:19;;;;;;;21.57;11.77;;;7.70;99.90;;;;;;4368408;28;660616;-65
2022/10/08 05:24:08;;;;;;;18.30;10.37;;;7.70;99.90;;;;;;4348845;28;658170;-65
2022/10/08 05:26:55;;;;;;;21.38;12.23;;;7.70;99.90;;;;;;4350900;28;657433;-66
2022/10/08 05:29:42;;;;;;;27.27;11.93;;;7.70;99.90;;;;;;4361755;28;658227;-65
2022/10/08 05:32:29;;;;;;;29.80;13.03;;;7.80;99.90;;;;;;4371894;28;657308;-65
2022/10/08 05:35:17;;;;;;;26.67;12.67;;;7.90;99.90;;;;;;4354000;28;657656;-66
2022/10/08 05:38:04;;;;;;;24.57;13.00;;;7.90;99.90;;;;;;4364542;28;658017;-65
2022/10/08 05:40:52;;;;;;;20.27;13.83;;;8.00;99.90;;;;;;4352585;28;657701;-65
2022/10/08 05:43:40;;;;;;;20.47;12.87;;;8.10;99.90;;;;;;4369515;28;657488;-65
2022/10/08 05:46:28;;;;;;;35.83;15.30;;;8.30;99.90;;;;;;4374762;28;659458;-65
2022/10/08 05:49:18;;;;;;;23.47;13.97;;;8.40;99.90;;;;;;4357117;28;657556;-66
2022/10/08 05:52:05;;;;;;;23.27;12.40;;;8.50;99.90;;;;;;4353688;28;657877;-66
2022/10/08 05:54:52;;;;;;;27.97;12.30;;;8.60;99.90;;;;;;4373922;28;657909;-65
2022/10/08 05:57:41;;;;;;;25.60;12.27;;;8.80;99.90;;;;;;4371662;28;658195;-65
2022/10/08 06:00:28;;;;;;;24.07;11.90;;;8.90;99.90;;;;;;4348920;28;658458;-65
2022/10/08 06:03:15;;;;;;;18.53;12.63;;;9.10;99.90;;;;;;4347361;28;657490;-66
2022/10/08 06:06:03;;;;;;;26.38;14.52;;;9.20;99.90;;;;;;4374309;28;657437;-65
2022/10/08 06:08:53;;;;;;;22.25;13.85;;;9.30;99.90;;;;;;4356048;28;657207;-66
2022/10/08 06:11:41;;;;;;;27.13;14.30;;;9.40;99.90;;;;;;4353388;28;657718;-66
2022/10/08 06:14:29;;;;;;;26.27;15.83;;;9.60;99.90;;;;;;4366774;28;657932;-65
2022/10/08 06:17:17;;;;;;;32.83;14.73;;;9.70;99.90;;;;;;4351558;28;658228;-65
2022/10/08 06:20:04;;;;;;;33.07;14.10;;;9.80;99.90;;;;;;4371625;28;658538;-65
2022/10/08 06:22:51;;;;;;;28.50;15.63;;;10.00;99.90;;;;;;4347864;28;657570;-65
2022/10/08 06:25:38;;;;;;;26.97;16.90;;;10.20;99.90;;;;;;4373045;28;659239;-65
2022/10/08 06:28:26;;;;;;;25.83;14.57;;;10.40;99.90;;;;;;4354925;28;658672;-66
2022/10/08 06:31:14;;;;;;;27.33;16.37;;;10.60;99.90;;;;;;4371460;28;660511;-65
2022/10/08 06:34:03;;;;;;;28.63;16.90;;;10.80;99.90;;;;;;4345728;28;658583;-65
2022/10/08 06:36:50;;;;;;;31.83;16.67;;;11.00;99.90;;;;;;4364233;28;659112;-65
2022/10/08 06:39:37;;;;;;;27.07;16.23;;;11.10;99.90;;;;;;4370361;28;658593;-65
2022/10/08 06:42:24;;;;;;;31.67;18.70;;;11.40;99.90;;;;;;4364761;28;660321;-64
2022/10/08 06:45:12;;;;;;;26.07;16.07;;;11.60;99.90;;;;;;4351163;28;658403;-65
2022/10/08 06:48:00;;;;;;;26.50;16.50;;;11.80;99.90;;;;;;4365451;28;658842;-65
2022/10/08 06:50:47;;;;;;;30.10;16.30;;;12.00;99.90;;;;;;4350243;28;659814;-64
2022/10/08 06:53:34;;;;;;;26.00;16.57;;;12.20;99.90;;;;;;4364762;28;659076;-65
2022/10/08 06:56:22;;;;;;;25.80;16.47;;;12.40;99.90;;;;;;4347813;28;658758;-65
2022/10/08 06:59:09;;;;;;;24.92;15.68;;;12.60;99.90;;;;;;4364372;28;658965;-65
2022/10/08 07:01:56;;;;;;;22.20;14.50;;;12.80;99.90;;;;;;4347269;28;658836;-66
2022/10/08 07:04:45;;;;;;;25.73;14.97;;;13.00;99.90;;;;;;4367492;28;659180;-65
2022/10/08 07:07:32;;;;;;;21.27;14.43;;;13.20;99.90;;;;;;4342902;28;660094;-65
2022/10/08 07:10:19;;;;;;;23.63;14.60;;;13.40;99.90;;;;;;4368160;28;658371;-65
2022/10/08 07:13:06;;;;;;;21.85;13.57;;;13.60;99.90;;;;;;4345665;28;658819;-65
2022/10/08 07:16:00;;;;;;;23.63;14.13;;;13.70;99.90;;;;;;4363221;28;659122;-65
2022/10/08 07:18:47;;;;;;;22.70;14.00;;;13.90;99.90;;;;;;4319934;28;659220;-66
2022/10/08 07:21:36;;;;;;;26.13;13.77;;;14.10;99.90;;;;;;4368462;28;658929;-66
2022/10/08 07:24:23;;;;;;;25.50;11.47;;;14.30;99.90;;;;;;4344947;28;658758;-65
2022/10/08 07:27:10;;;;;;;18.80;11.60;;;14.60;99.90;;;;;;4354392;28;658688;-66
2022/10/08 07:29:57;;;;;;;16.87;9.30;;;14.80;99.90;;;;;;4372741;28;659900;-66
2022/10/08 07:32:44;;;;;;;13.90;8.67;;;14.80;99.90;;;;;;4370134;28;657299;-65
2022/10/08 07:35:32;;;;;;;23.60;8.90;;;15.10;99.90;;;;;;4350033;28;657782;-66
2022/10/08 07:38:20;;;;;;;14.17;8.70;;;15.40;99.90;;;;;;4369338;28;658325;-66
2022/10/08 07:41:08;;;;;;;15.73;8.37;;;15.60;99.90;;;;;;4349039;28;658655;-65
2022/10/08 07:43:57;;;;;;;15.90;8.43;;;15.90;99.90;;;;;;4347547;28;657333;-66
2022/10/08 07:46:45;;;;;;;16.63;8.83;;;16.20;99.90;;;;;;4369859;28;657582;-65
2022/10/08 07:49:32;;;;;;;18.57;9.40;;;16.30;99.90;;;;;;4349489;28;659263;-65
2022/10/08 07:52:19;;;;;;;24.67;8.20;;;16.20;99.90;;;;;;4372911;28;658923;-65
2022/10/08 07:55:08;;;;;;;14.77;7.87;;;16.30;99.90;;;;;;4343727;28;657694;-66
2022/10/08 07:57:55;;;;;;;14.70;6.95;;;16.40;99.90;;;;;;4348157;28;657557;-65
2022/10/08 08:00:42;;;;;;;11.00;6.53;;;16.70;99.90;;;;;;4372578;28;657781;-65
2022/10/08 08:03:30;;;;;;;10.77;7.03;;;16.60;99.90;;;;;;4371864;28;657386;-65
2022/10/08 08:06:17;;;;;;;16.80;6.73;;;17.00;99.90;;;;;;4343953;28;658466;-66
2022/10/08 08:09:04;;;;;;;9.13;6.40;;;17.10;99.90;;;;;;4370175;28;657884;-65
2022/10/08 08:11:52;;;;;;;12.97;6.27;;;17.60;99.90;;;;;;4352199;28;656792;-66
2022/10/08 08:14:40;;;;;;;11.40;5.83;;;17.80;99.90;;;;;;4372798;28;657259;-66
2022/10/08 08:17:27;;;;;;;10.90;5.33;;;18.10;99.90;;;;;;4377454;28;658433;-67
2022/10/08 08:20:14;;;;;;;8.97;5.47;;;17.90;99.90;;;;;;4375354;28;658100;-66
2022/10/08 08:23:02;;;;;;;9.57;5.00;;;18.20;99.90;;;;;;4352938;28;656671;-66
2022/10/08 08:25:49;;;;;;;7.67;4.50;;;18.60;99.90;;;;;;4376439;28;657120;-65
2022/10/08 08:28:37;;;;;;;8.37;4.80;;;18.60;99.90;;;;;;4351231;28;656317;-66
2022/10/08 08:31:25;;;;;;;10.50;4.63;;;18.90;99.90;;;;;;4375034;28;656711;-66
2022/10/08 08:34:14;;;;;;;11.57;4.40;;;18.60;99.90;;;;;;4342123;28;658589;-66
2022/10/08 08:37:01;;;;;;;14.30;4.20;;;18.70;99.90;;;;;;4348065;28;657523;-67
2022/10/08 08:39:48;;;;;;;8.68;4.43;;;18.90;99.90;;;;;;4369160;28;657523;-66
2022/10/08 08:42:43;;;;;;;12.67;4.33;;;18.60;99.90;;;;;;4355647;28;656688;-66
2022/10/08 08:45:34;;;;;;;9.60;4.50;;;18.60;99.90;;;;;;4328255;28;661931;-67
2022/10/08 08:48:22;;;;;;;9.50;3.87;;;18.70;99.90;;;;;;4343098;28;656650;-66
2022/10/08 08:51:10;;;;;;;9.60;3.87;;;18.90;99.90;;;;;;4362237;28;656384;-66
2022/10/08 08:53:57;;;;;;;8.07;3.47;;;19.00;99.90;;;;;;4379401;28;657217;-67
2022/10/08 08:56:44;;;;;;;6.57;3.13;;;18.10;99.90;;;;;;4369973;28;655777;-66
2022/10/08 08:59:33;;;;;;;6.27;3.37;;;18.50;99.90;;;;;;4349538;28;656617;-66
2022/10/08 09:02:24;;;;;;;7.33;3.60;;;18.00;99.90;;;;;;4350265;28;656895;-66
2022/10/08 09:05:12;;;;;;;8.07;3.13;;;18.30;99.90;;;;;;4350770;28;656464;-65
2022/10/08 09:08:04;;;;;;;6.93;3.60;;;18.60;99.90;;;;;;4370305;28;656376;-66
2022/10/08 09:10:54;;;;;;;7.80;3.50;;;18.80;99.90;;;;;;4346990;28;656573;-66
2022/10/08 09:13:43;;;;;;;4.23;2.90;;;19.10;99.90;;;;;;4346852;28;656671;-65
2022/10/08 09:16:30;;;;;;;7.40;3.27;;;19.60;99.90;;;;;;4351035;28;656744;-67
2022/10/08 09:19:19;;;;;;;11.43;3.53;;;19.80;99.90;;;;;;4370711;28;657035;-65
2022/10/08 09:22:12;;;;;;;11.23;3.57;;;19.30;99.90;;;;;;4348558;28;657476;-65
2022/10/08 09:25:00;;;;;;;5.90;3.43;;;19.50;99.90;;;;;;4342831;28;657610;-66
2022/10/08 09:27:48;;;;;;;7.13;3.60;;;20.10;99.90;;;;;;4346597;28;656794;-65
2022/10/08 09:30:37;;;;;;;9.97;3.73;;;19.50;99.90;;;;;;4353552;28;656308;-66
2022/10/08 09:33:28;;;;;;;5.53;2.58;;;19.70;99.90;;;;;;4364852;28;656966;-65
2022/10/08 09:36:27;;;;;;;3.33;2.50;;;20.00;99.90;;;;;;4332533;28;656219;-67
2022/10/08 09:39:17;;;;;;;6.67;3.97;;;20.00;99.90;;;;;;4344626;28;657195;-65
2022/10/08 09:42:12;;;;;;;6.43;3.33;;;20.20;99.90;;;;;;4349877;28;656576;-66
2022/10/08 09:45:02;;;;;;;5.50;3.70;;;19.70;99.90;;;;;;4344625;28;656349;-65
2022/10/08 09:47:51;;;;;;;4.90;3.00;;;19.90;99.90;;;;;;4343425;28;656846;-65
2022/10/08 09:50:38;;;;;;;6.27;4.03;;;19.80;99.90;;;;;;4346462;28;656972;-65
2022/10/08 09:53:29;;;;;;;7.47;3.70;;;19.90;99.90;;;;;;4355742;28;656448;-67
2022/10/08 09:56:16;;;;;;;8.00;4.10;;;20.20;99.90;;;;;;4351107;28;656724;-66
2022/10/08 09:59:04;;;;;;;8.53;4.30;;;20.50;99.90;;;;;;4372723;28;656910;-66
2022/10/08 10:01:53;;;;;;;10.57;4.20;;;20.60;99.90;;;;;;4356451;28;656624;-66
2022/10/08 10:04:40;;;;;;;7.23;4.60;;;20.60;99.90;;;;;;4361574;28;657874;-66
2022/10/08 10:07:36;;;;;;;8.73;4.80;;;20.00;99.90;;;;;;4380031;28;657479;-65
2022/10/08 10:10:27;;;;;;;7.70;4.60;;;20.20;99.90;;;;;;4352235;28;656646;-65
2022/10/08 10:13:20;;;;;;;7.17;4.93;;;20.50;99.90;;;;;;4352836;28;657081;-66
2022/10/08 10:16:10;;;;;;;7.37;4.60;;;19.90;99.90;;;;;;4325260;28;657371;-65
2022/10/08 10:18:58;;;;;;;9.20;5.40;;;19.60;99.90;;;;;;4347251;28;658366;-65
2022/10/08 10:21:50;;;;;;;11.50;5.50;;;19.40;99.90;;;;;;4352795;28;656889;-65
2022/10/08 10:24:47;;;;;;;5.67;4.63;;;19.70;99.90;;;;;;4346440;28;658496;-65
2022/10/08 10:27:37;;;;;;;12.07;6.13;;;19.40;99.90;;;;;;4350507;28;656383;-65
2022/10/08 10:30:25;;;;;;;10.20;5.90;;;19.70;99.90;;;;;;4368284;28;658505;-67
2022/10/08 10:33:14;;;;;;;11.37;6.30;;;19.50;99.90;;;;;;4376371;28;658264;-66
2022/10/08 10:36:04;;;;;;;11.37;7.20;;;19.30;99.90;;;;;;4351691;28;657361;-65
2022/10/08 10:38:53;;;;;;;9.57;4.50;;;19.10;99.90;;;;;;4354644;28;657601;-65
2022/10/08 10:41:43;;;;;;;10.40;6.00;;;19.20;99.90;;;;;;4352686;28;656537;-65
2022/10/08 10:44:34;;;;;;;14.07;6.20;;;18.90;99.90;;;;;;4352872;28;657876;-66
2022/10/08 10:47:22;;;;;;;11.60;6.07;;;18.70;99.90;;;;;;4354099;28;659130;-66
2022/10/08 10:50:12;;;;;;;9.53;6.03;;;18.80;99.90;;;;;;4369447;28;657799;-66
2022/10/08 10:53:03;;;;;;;10.83;6.30;;;19.00;99.90;;;;;;4349952;28;656998;-66
2022/10/08 10:55:53;;;;;;;10.27;5.53;;;19.50;99.90;;;;;;4360518;28;657831;-66
2022/10/08 10:58:45;;;;;;;10.67;6.37;;;19.80;99.90;;;;;;4358881;28;657478;-66
2022/10/08 11:01:39;;;;;;;11.63;5.90;;;19.40;99.90;;;;;;4341711;28;659165;-65
2022/10/08 11:04:35;;;;;;;8.80;5.87;;;19.90;99.90;;;;;;4319878;28;657549;-65
2022/10/08 11:07:49;;;;;;;7.83;4.97;;;19.70;99.90;;;;;;4327298;28;656905;-66
2022/10/08 11:10:45;;;;;;;9.67;6.17;;;19.70;99.90;;;;;;4351073;28;656588;-66
2022/10/08 11:13:41;;;;;;;7.80;5.30;;;20.00;99.90;;;;;;4347705;28;656800;-65
2022/10/08 11:16:41;;;;;;;9.47;6.07;;;20.30;99.90;;;;;;4347383;28;657213;-65
2022/10/08 11:19:37;;;;;;;10.40;5.87;;;20.10;99.90;;;;;;4345712;28;656503;-65
2022/10/08 11:22:27;;;;;;;8.43;5.67;;;19.50;99.90;;;;;;4347208;28;658173;-65
2022/10/08 11:25:19;;;;;;;7.73;5.57;;;19.80;99.90;;;;;;4344524;28;656681;-66
2022/10/08 11:28:14;;;;;;;10.27;5.70;;;20.60;99.90;;;;;;4324876;28;656761;-66
2022/10/08 11:31:08;;;;;;;14.00;5.67;;;21.00;99.90;;;;;;4354743;28;657819;-66
2022/10/08 11:33:57;;;;;;;7.27;5.40;;;20.60;99.90;;;;;;4335992;28;657554;-66
2022/10/08 11:36:46;;;;;;;10.40;6.00;;;20.90;99.90;;;;;;4364467;28;656304;-65
2022/10/08 11:39:40;;;;;;;9.60;6.07;;;20.70;99.90;;;;;;4349967;28;658526;-67
2022/10/08 11:42:30;;;;;;;9.10;5.80;;;20.70;99.90;;;;;;4346522;28;656957;-65
2022/10/08 11:45:32;;;;;;;8.93;6.13;;;20.90;99.90;;;;;;4352245;28;657797;-66
2022/10/08 11:48:30;;;;;;;12.77;5.67;;;20.90;99.90;;;;;;4348558;28;657453;-66
2022/10/08 11:51:37;;;;;;;8.73;6.60;;;21.20;99.90;;;;;;4326879;28;658197;-66
2022/10/08 11:54:27;;;;;;;8.20;6.33;;;21.10;99.90;;;;;;4350778;28;656102;-66
2022/10/08 11:57:18;;;;;;;13.33;6.83;;;21.10;99.90;;;;;;4345229;28;657995;-66
2022/10/08 12:00:06;;;;;;;14.23;6.17;;;21.80;99.90;;;;;;4326981;28;658849;-66
2022/10/08 12:02:54;;;;;;;10.70;6.20;;;22.00;99.90;;;;;;4372598;28;658388;-66
2022/10/08 12:05:42;;;;;;;7.63;5.93;;;21.70;99.90;;;;;;4350502;28;657497;-66
2022/10/08 12:08:55;;;;;;;11.47;6.37;;;21.30;99.90;;;;;;4372091;28;656892;-66
2022/10/08 12:11:50;;;;;;;13.60;6.93;;;20.90;99.90;;;;;;4339812;28;657605;-66
2022/10/08 12:14:47;;;;;;;8.73;6.77;;;19.80;99.90;;;;;;4349619;28;658636;-66
2022/10/08 12:17:52;;;;;;;13.80;7.77;;;20.50;99.90;;;;;;4349954;28;656744;-66
2022/10/08 12:20:42;;;;;;;12.00;7.80;;;20.10;99.90;;;;;;4352338;28;657955;-66
2022/10/08 12:23:38;;;;;;;9.57;7.43;;;19.80;99.90;;;;;;4375858;28;657507;-66
2022/10/08 12:26:27;;;;;;;10.90;7.83;;;20.70;99.90;;;;;;4333968;28;657856;-67
2022/10/08 12:29:27;;;;;;;11.67;7.80;;;20.60;99.90;;;;;;4374549;28;657604;-66
2022/10/08 12:32:14;;;;;;;12.63;8.30;;;20.80;99.90;;;;;;4353257;28;658350;-65
2022/10/08 12:35:01;;;;;;;15.53;8.80;;;20.60;99.90;;;;;;4356590;28;657613;-66
2022/10/08 12:38:19;;;;;;;13.27;8.43;;;19.90;99.90;;;;;;4368006;28;658275;-65
2022/10/08 12:41:11;;;;;;;16.63;9.33;;;20.30;99.90;;;;;;4350899;28;657725;-67
2022/10/08 12:44:02;;;;;;;12.90;9.17;;;20.50;99.90;;;;;;4354073;28;658132;-66
2022/10/08 12:46:51;;;;;;;15.33;9.13;;;20.50;99.90;;;;;;4354570;28;658258;-66
2022/10/08 12:49:41;;;;;;;14.60;9.80;;;20.10;99.90;;;;;;4354293;28;657990;-66
2022/10/08 12:52:32;;;;;;;15.37;9.27;;;20.10;99.90;;;;;;4351304;28;658839;-67
2022/10/08 12:55:21;;;;;;;16.93;9.27;;;19.80;99.90;;;;;;4339081;28;657661;-66
2022/10/08 12:58:13;;;;;;;15.17;9.17;;;19.80;99.90;;;;;;4352927;28;658544;-66
2022/10/08 13:01:02;;;;;;;16.13;9.27;;;20.40;99.90;;;;;;4340248;28;658064;-67
2022/10/08 13:04:09;;;;;;;13.50;10.20;;;20.50;99.90;;;;;;4372029;28;658235;-67
2022/10/08 13:06:56;;;;;;;12.03;9.43;;;19.60;99.90;;;;;;4329773;28;659279;-66
2022/10/08 13:09:44;;;;;;;12.30;9.47;;;19.40;99.90;;;;;;4370758;28;658597;-66
2022/10/08 13:12:31;;;;;;;14.70;9.53;;;19.30;99.90;;;;;;4352647;28;657469;-67
2022/10/08 13:15:21;;;;;;;16.93;10.17;;;19.20;99.90;;;;;;4376002;28;658384;-66
2022/10/08 13:18:14;;;;;;;16.53;9.87;;;19.10;99.90;;;;;;4340934;28;659142;-66
2022/10/08 13:21:02;;;;;;;13.40;9.93;;;19.20;99.90;;;;;;4356726;28;657615;-66
2022/10/08 13:23:49;;;;;;;13.37;9.63;;;19.40;99.90;;;;;;4376976;28;658348;-66
2022/10/08 13:26:38;;;;;;;17.43;9.33;;;20.00;99.90;;;;;;4351002;28;657779;-66
2022/10/08 13:29:30;;;;;;;16.37;9.40;;;20.70;99.90;;;;;;4359614;28;657542;-67
2022/10/08 13:32:20;;;;;;;11.57;8.70;;;22.00;99.90;;;;;;4356858;28;658702;-66
2022/10/08 13:35:19;;;;;;;10.97;9.13;;;21.30;99.90;;;;;;4357349;28;658722;-66
2022/10/08 13:38:07;;;;;;;15.18;8.73;;;22.30;99.90;;;;;;4353176;28;657546;-66
2022/10/08 13:40:57;;;;;;;11.50;7.97;;;22.30;99.90;;;;;;4380022;28;656748;-67
2022/10/08 13:43:44;;;;;;;11.90;8.73;;;22.50;99.90;;;;;;4354473;28;657682;-66
2022/10/08 13:46:31;;;;;;;19.83;8.97;;;22.20;99.90;;;;;;4343507;28;657516;-66
2022/10/08 13:49:20;;;;;;;14.80;8.73;;;21.60;99.90;;;;;;4379602;28;658619;-66
2022/10/08 13:52:10;;;;;;;12.03;8.13;;;20.80;99.90;;;;;;4348277;28;657786;-66
2022/10/08 13:54:59;;;;;;;16.67;8.80;;;20.50;99.90;;;;;;4357756;28;658580;-66
2022/10/08 13:57:46;;;;;;;13.97;8.40;;;19.90;99.90;;;;;;4362067;28;657471;-66
2022/10/08 14:00:34;;;;;;;15.53;8.70;;;20.30;99.90;;;;;;4380510;28;662608;-65
2022/10/08 14:03:21;;;;;;;13.30;9.07;;;19.80;99.90;;;;;;4359761;28;657923;-66
2022/10/08 14:06:08;;;;;;;14.63;8.80;;;19.80;99.90;;;;;;4378773;28;658789;-66
2022/10/08 14:08:57;;;;;;;14.50;8.50;;;19.70;99.90;;;;;;4359833;28;657495;-66
2022/10/08 14:11:45;;;;;;;12.27;7.67;;;19.60;99.90;;;;;;4369975;28;657890;-66
2022/10/08 14:14:32;;;;;;;16.17;8.83;;;19.70;99.90;;;;;;4356566;28;658817;-66
2022/10/08 14:17:19;;;;;;;12.47;8.50;;;19.50;99.90;;;;;;4372386;28;657949;-66
2022/10/08 14:20:07;;;;;;;12.37;7.50;;;20.80;99.90;;;;;;4359417;28;657778;-66
2022/10/08 14:22:54;;;;;;;17.43;8.50;;;22.00;99.90;;;;;;4377870;28;657944;-66